createdAt,value
2019-01-19T00:01:46.069Z,97155.72
2019-01-19T00:04:35.543Z,97158.80
2019-01-19T00:07:43.393Z,97157.16
2019-01-19T00:10:34.879Z,97159.25
2019-01-19T00:13:43.434Z,97152.33
2019-01-19T00:20:15.113Z,97150.55
2019-01-19T00:23:02.496Z,97148.52
2019-01-19T00:26:27.053Z,97147.78
2019-01-19T00:29:32.685Z,97147.48
2019-01-19T00:32:23.994Z,97149.34
2019-01-19T00:35:42.969Z,97144.32
2019-01-19T00:38:33.491Z,97150.55
2019-01-19T00:41:49.366Z,97165.05
2019-01-19T00:44:45.711Z,97163.43
2019-01-19T00:47:26.619Z,97160.56
2019-01-19T00:50:01.901Z,97157.82
2019-01-19T00:52:53.006Z,97161.41
2019-01-19T00:55:32.036Z,97164.36
2019-01-19T00:58:07.458Z,97157.70
2019-01-19T01:00:48.133Z,97157.61
2019-01-19T01:03:35.907Z,97154.12
2019-01-19T01:06:34.992Z,97164.17
2019-01-19T01:09:28.352Z,97152.30
2019-01-19T01:12:15.249Z,97157.00
2019-01-19T01:15:10.704Z,97154.77
2019-01-19T01:17:43.527Z,97151.96
2019-01-19T01:20:36.806Z,97153.91
2019-01-19T01:23:40.191Z,97160.59
2019-01-19T01:26:58.553Z,97159.98
2019-01-19T01:30:23.735Z,97162.09
2019-01-19T01:33:11.975Z,97161.97
2019-01-19T01:35:57.135Z,97161.42
2019-01-19T01:38:35.760Z,97159.89
2019-01-19T01:41:16.184Z,97161.69
2019-01-19T01:44:21.418Z,97153.21
2019-01-19T01:47:32.076Z,97152.67
2019-01-19T01:50:30.602Z,97158.13
2019-01-19T01:53:33.325Z,97152.69
2019-01-19T01:56:19.287Z,97155.55
2019-01-19T01:59:24.544Z,97146.16
2019-01-19T02:01:58.827Z,97150.84
2019-01-19T02:04:49.515Z,97147.86
2019-01-19T02:07:30.180Z,97148.52
2019-01-19T02:10:06.243Z,97140.89
2019-01-19T02:12:53.887Z,97141.85
2019-01-19T02:15:29.530Z,97141.36
2019-01-19T02:18:07.757Z,97139.47
2019-01-19T02:21:10.000Z,97138.57
2019-01-19T02:23:49.302Z,97141.20
2019-01-19T02:26:56.374Z,97128.97
2019-01-19T02:29:47.464Z,97138.81
2019-01-19T02:32:34.965Z,97145.16
2019-01-19T02:35:20.529Z,97133.50
2019-01-19T02:37:56.329Z,97137.06
2019-01-19T02:40:33.169Z,97140.74
2019-01-19T02:43:17.887Z,97138.68
2019-01-19T02:46:11.372Z,97138.20
2019-01-19T02:48:56.901Z,97137.54
2019-01-19T02:51:40.631Z,97137.16
2019-01-19T02:54:25.415Z,97131.42
2019-01-19T02:57:18.036Z,97130.27
2019-01-19T03:00:14.634Z,97140.53
2019-01-19T03:02:50.689Z,97140.02
2019-01-19T03:05:26.836Z,97129.49
2019-01-19T03:07:59.929Z,97126.83
2019-01-19T03:10:50.281Z,97127.03
2019-01-19T03:13:42.468Z,97120.05
2019-01-19T03:16:52.112Z,97122.23
2019-01-19T03:19:35.105Z,97121.48
2019-01-19T03:22:34.387Z,97120.08
2019-01-19T03:25:28.551Z,97110.69
2019-01-19T03:28:30.143Z,97113.55
2019-01-19T03:31:31.521Z,97109.45
2019-01-19T03:34:21.388Z,97118.16
2019-01-19T03:37:04.346Z,97113.31
2019-01-19T03:40:13.095Z,97111.11
2019-01-19T03:43:04.690Z,97117.02
2019-01-19T03:46:10.852Z,97114.45
2019-01-19T03:49:16.366Z,97118.15
2019-01-19T03:52:12.507Z,97112.34
2019-01-19T03:55:03.767Z,97108.50
2019-01-19T03:57:59.555Z,97103.48
2019-01-19T04:01:12.791Z,97106.56
2019-01-19T04:04:19.678Z,97110.68
2019-01-19T04:07:19.874Z,97105.23
2019-01-19T04:10:01.332Z,97109.11
2019-01-19T04:12:37.351Z,97106.19
2019-01-19T04:15:24.972Z,97104.27
2019-01-19T04:17:57.659Z,97094.73
2019-01-19T04:20:48.659Z,97100.18
2019-01-19T04:23:29.759Z,97097.74
2019-01-19T04:26:04.583Z,97101.69
2019-01-19T04:28:38.852Z,97096.42
2019-01-19T04:31:08.772Z,97098.62
2019-01-19T04:33:38.548Z,97098.52
2019-01-19T04:36:09.582Z,97096.84
2019-01-19T04:38:42.124Z,97098.43
2019-01-19T04:41:19.158Z,97101.64
2019-01-19T04:43:58.156Z,97093.00
2019-01-19T04:46:28.388Z,97098.53
2019-01-19T04:48:58.145Z,97093.02
2019-01-19T04:51:27.932Z,97098.16
2019-01-19T04:54:04.475Z,97099.36
2019-01-19T04:56:39.700Z,97097.76
2019-01-19T04:59:10.889Z,97091.23
2019-01-19T05:01:45.323Z,97093.06
2019-01-19T05:04:20.073Z,97096.05
2019-01-19T05:06:58.719Z,97093.06
2019-01-19T05:09:30.881Z,97095.96
2019-01-19T05:12:13.197Z,97095.43
2019-01-19T05:14:48.309Z,97094.81
2019-01-19T05:17:32.846Z,97099.50
2019-01-19T05:20:07.222Z,97103.48
2019-01-19T05:22:38.785Z,97103.07
2019-01-19T05:25:13.044Z,97105.64
2019-01-19T05:27:42.813Z,97105.52
2019-01-19T05:30:16.287Z,97099.20
2019-01-19T05:33:04.403Z,97099.70
2019-01-19T05:35:36.093Z,97102.77
2019-01-19T05:38:10.259Z,97105.22
2019-01-19T05:40:44.054Z,97102.31
2019-01-19T05:43:16.236Z,97107.53
2019-01-19T05:45:46.124Z,97108.66
2019-01-19T05:48:23.367Z,97112.69
2019-01-19T05:51:03.973Z,97110.66
2019-01-19T05:53:40.963Z,97112.61
2019-01-19T05:56:10.810Z,97117.64
2019-01-19T05:58:58.157Z,97119.74
2019-01-19T06:01:29.137Z,97121.97
2019-01-19T06:04:10.591Z,97123.05
2019-01-19T06:06:46.766Z,97116.63
2019-01-19T06:09:19.812Z,97117.63
2019-01-19T06:11:59.915Z,97116.68
2019-01-19T06:14:52.234Z,97121.20
2019-01-19T06:17:30.721Z,97121.70
2019-01-19T06:20:06.860Z,97120.25
2019-01-19T06:22:46.482Z,97123.94
2019-01-19T06:25:37.265Z,97123.23
2019-01-19T06:28:19.595Z,97116.52
2019-01-19T06:30:50.594Z,97113.55
2019-01-19T06:33:27.041Z,97121.16
2019-01-19T06:36:06.707Z,97120.71
2019-01-19T06:38:42.708Z,97122.70
2019-01-19T06:41:26.615Z,97119.87
2019-01-19T06:44:04.046Z,97121.88
2019-01-19T06:47:09.610Z,97121.14
2019-01-19T06:53:13.074Z,97120.36
2019-01-19T06:56:09.506Z,97123.88
2019-01-19T06:58:36.883Z,97134.92
2019-01-19T07:03:55.277Z,97138.41
2019-01-19T07:06:46.903Z,97137.58
2019-01-19T07:09:22.181Z,97137.78
2019-01-19T07:15:37.763Z,97148.69
2019-01-19T07:18:49.963Z,97150.60
2019-01-19T07:21:53.993Z,97149.52
2019-01-19T07:24:50.498Z,97154.33
2019-01-19T07:27:39.295Z,97147.12
2019-01-19T07:30:21.881Z,97154.44
2019-01-19T07:33:20.166Z,97154.86
2019-01-19T07:35:53.866Z,97155.53
2019-01-19T07:38:26.943Z,97157.28
2019-01-19T07:41:08.325Z,97153.72
2019-01-19T07:44:15.711Z,97158.64
2019-01-19T07:47:01.730Z,97155.36
2019-01-19T07:49:38.135Z,97162.20
2019-01-19T07:52:38.338Z,97160.53
2019-01-19T07:55:47.181Z,97164.62
2019-01-19T07:58:38.599Z,97163.08
2019-01-19T08:01:29.257Z,97165.79
2019-01-19T08:04:25.696Z,97160.69
2019-01-19T08:07:19.053Z,97157.70
2019-01-19T08:10:06.176Z,97165.10
2019-01-19T08:12:52.298Z,97168.56
2019-01-19T08:15:42.846Z,97168.08
2019-01-19T08:18:33.347Z,97168.41
2019-01-19T08:21:26.207Z,97166.86
2019-01-19T08:24:13.339Z,97171.72
2019-01-19T08:27:05.953Z,97175.31
2019-01-19T08:30:20.001Z,97179.81
2019-01-19T08:33:22.293Z,97186.23
2019-01-19T08:36:07.927Z,97179.97
2019-01-19T08:39:11.881Z,97184.09
2019-01-19T08:42:03.002Z,97184.72
2019-01-19T08:45:08.361Z,97191.14
2019-01-19T08:47:52.122Z,97193.67
2019-01-19T08:50:46.763Z,97197.24
2019-01-19T08:54:04.650Z,97199.75
2019-01-19T08:56:42.228Z,97203.16
2019-01-19T08:59:22.403Z,97204.42
2019-01-19T09:02:14.900Z,97209.91
2019-01-19T09:05:18.683Z,97205.97
2019-01-19T09:08:54.745Z,97212.39
2019-01-19T09:14:45.086Z,97213.19
2019-01-19T09:17:55.557Z,97214.30
2019-01-19T09:20:48.434Z,97215.95
2019-01-19T09:23:59.609Z,97221.61
2019-01-19T09:27:05.926Z,97221.81
2019-01-19T09:30:19.519Z,97224.92
2019-01-19T09:33:18.871Z,97221.48
2019-01-19T09:36:20.273Z,97222.19
2019-01-19T09:39:15.759Z,97227.29
2019-01-19T09:41:58.061Z,97231.69
2019-01-19T09:44:33.486Z,97228.81
2019-01-19T09:47:29.264Z,97229.45
2019-01-19T09:50:46.431Z,97231.49
2019-01-19T09:53:42.918Z,97223.45
2019-01-19T09:56:51.161Z,97228.19
2019-01-19T09:59:35.012Z,97227.95
2019-01-19T10:02:25.131Z,97226.46
2019-01-19T10:05:16.112Z,97232.48
2019-01-19T10:07:58.989Z,97224.66
2019-01-19T10:10:39.193Z,97223.86
2019-01-19T10:17:03.556Z,97213.47
2019-01-19T10:19:41.312Z,97214.71
2019-01-19T10:22:28.583Z,97210.31
2019-01-19T10:25:09.437Z,97212.58
2019-01-19T10:27:53.986Z,97213.52
2019-01-19T10:30:32.719Z,97212.34
2019-01-19T10:33:15.167Z,97203.09
2019-01-19T10:36:17.587Z,97204.97
2019-01-19T10:38:52.982Z,97202.73
2019-01-19T10:41:28.255Z,97194.73
2019-01-19T10:44:13.032Z,97192.95
2019-01-19T10:47:05.470Z,97190.80
2019-01-19T10:50:15.125Z,97191.47
2019-01-19T10:53:29.493Z,97192.00
2019-01-19T10:59:22.399Z,97195.27
2019-01-19T11:02:29.664Z,97187.05
2019-01-19T11:05:16.689Z,97180.47
2019-01-19T11:07:53.645Z,97184.05
2019-01-19T11:10:49.818Z,97178.09
2019-01-19T11:16:31.364Z,97170.17
2019-01-19T11:19:22.514Z,97173.69
2019-01-19T11:22:23.337Z,97171.84
2019-01-19T11:25:34.202Z,97165.19
2019-01-19T11:28:11.132Z,97163.70
2019-01-19T11:30:48.872Z,97158.52
2019-01-19T11:33:28.903Z,97152.53
2019-01-19T11:36:09.533Z,97149.88
2019-01-19T11:38:56.931Z,97144.63
2019-01-19T11:41:34.232Z,97135.84
2019-01-19T11:44:11.979Z,97134.95
2019-01-19T11:47:01.297Z,97138.81
2019-01-19T11:49:49.122Z,97133.20
2019-01-19T11:52:30.764Z,97124.09
2019-01-19T11:55:28.670Z,97121.21
2019-01-19T11:58:04.594Z,97127.33
2019-01-19T12:00:52.807Z,97116.53
2019-01-19T12:06:57.641Z,97114.26
2019-01-19T12:09:46.229Z,97112.06
2019-01-19T12:12:44.823Z,97109.69
2019-01-19T12:15:34.833Z,97098.20
2019-01-19T12:18:18.235Z,97104.41
2019-01-19T12:20:53.721Z,97093.86
2019-01-19T12:23:27.216Z,97100.58
2019-01-19T12:26:16.222Z,97092.74
2019-01-19T12:29:12.568Z,97085.44
2019-01-19T12:31:53.640Z,97082.41
2019-01-19T12:34:34.907Z,97081.84
2019-01-19T12:37:32.586Z,97079.50
2019-01-19T12:40:30.710Z,97076.77
2019-01-19T12:43:37.137Z,97083.09
2019-01-19T12:46:27.551Z,97081.17
2019-01-19T12:49:07.307Z,97081.21
2019-01-19T12:51:52.186Z,97077.36
2019-01-19T12:54:45.912Z,97077.11
2019-01-19T12:57:33.424Z,97074.13
2019-01-19T13:00:22.591Z,97068.41
2019-01-19T13:03:25.967Z,97067.33
2019-01-19T13:09:24.494Z,97063.77
2019-01-19T13:12:34.508Z,97064.97
2019-01-19T13:15:33.007Z,97063.43
2019-01-19T13:18:47.324Z,97067.58
2019-01-19T13:22:01.448Z,97058.50
2019-01-19T13:25:25.178Z,97057.80
2019-01-19T13:28:43.237Z,97063.16
2019-01-19T13:35:06.860Z,97056.89
2019-01-19T13:38:06.991Z,97057.63
2019-01-19T13:40:57.718Z,97058.87
2019-01-19T13:44:07.424Z,97056.80
2019-01-19T13:47:03.016Z,97052.11
2019-01-19T13:50:15.830Z,97056.81
2019-01-19T13:52:59.496Z,97053.05
2019-01-19T13:55:36.373Z,97056.19
2019-01-19T13:58:16.205Z,97057.16
2019-01-19T14:01:09.304Z,97056.09
2019-01-19T14:04:07.866Z,97057.30
2019-01-19T14:07:28.717Z,97051.27
2019-01-19T14:10:48.445Z,97055.56
2019-01-19T14:14:11.761Z,97057.21
2019-01-19T14:17:22.272Z,97058.32
2019-01-19T14:20:27.879Z,97053.75
2019-01-19T14:23:31.617Z,97058.17
2019-01-19T14:26:16.005Z,97056.62
2019-01-19T14:29:03.975Z,97059.41
2019-01-19T14:31:50.924Z,97064.23
2019-01-19T14:35:04.365Z,97065.00
2019-01-19T14:42:07.209Z,97066.03
2019-01-19T14:45:04.931Z,97067.44
2019-01-19T14:47:55.592Z,97061.52
2019-01-19T14:50:37.914Z,97068.63
2019-01-19T14:53:54.274Z,97070.97
2019-01-19T14:57:15.506Z,97071.55
2019-01-19T15:00:29.605Z,97071.12
2019-01-19T15:03:33.014Z,97069.97
2019-01-19T15:06:18.623Z,97066.45
2019-01-19T15:09:21.713Z,97066.45
2019-01-19T15:12:30.052Z,97062.58
2019-01-19T15:15:43.164Z,97065.59
2019-01-19T15:18:47.722Z,97057.87
2019-01-19T15:21:37.428Z,97059.11
2019-01-19T15:24:26.589Z,97057.20
2019-01-19T15:27:21.609Z,97057.27
2019-01-19T15:30:25.099Z,97057.75
2019-01-19T15:33:08.060Z,97060.73
2019-01-19T15:36:11.739Z,97061.07
2019-01-19T15:38:51.260Z,97061.44
2019-01-19T15:41:50.073Z,97059.06
2019-01-19T15:44:45.747Z,97057.84
2019-01-19T15:47:42.166Z,97060.05
2019-01-19T15:50:57.565Z,97057.50
2019-01-19T15:54:06.682Z,97052.95
2019-01-19T15:57:13.695Z,97054.41
2019-01-19T16:00:19.977Z,97055.91
2019-01-19T16:03:15.973Z,97056.55
2019-01-19T16:06:27.673Z,97056.11
2019-01-19T16:09:30.887Z,97050.64
2019-01-19T16:12:14.423Z,97047.73
2019-01-19T16:15:02.229Z,97048.67
2019-01-19T16:17:51.085Z,97051.81
2019-01-19T16:20:47.169Z,97047.53
2019-01-19T16:23:35.818Z,97052.84
2019-01-19T16:26:24.138Z,97053.71
2019-01-19T16:29:12.564Z,97054.70
2019-01-19T16:32:15.505Z,97049.73
2019-01-19T16:35:09.416Z,97051.93
2019-01-19T16:37:47.814Z,97057.20
2019-01-19T16:40:48.793Z,97052.01
2019-01-19T16:43:33.450Z,97049.98
2019-01-19T16:46:32.990Z,97045.38
2019-01-19T16:49:24.900Z,97041.89
2019-01-19T16:52:22.610Z,97041.91
2019-01-19T16:55:04.754Z,97043.97
2019-01-19T16:57:52.930Z,97039.83
2019-01-19T17:00:55.816Z,97044.45
2019-01-19T17:03:45.525Z,97051.87
2019-01-19T17:09:52.842Z,97052.80
2019-01-19T17:12:45.020Z,97057.69
2019-01-19T17:15:50.693Z,97057.55
2019-01-19T17:19:11.371Z,97062.75
2019-01-19T17:22:17.920Z,97067.22
2019-01-19T17:25:18.664Z,97069.20
2019-01-19T17:36:01.241Z,97071.95
2019-01-19T17:39:20.728Z,97075.02
2019-01-19T17:42:33.642Z,97079.08
2019-01-19T17:46:08.591Z,97085.92
2019-01-19T17:49:09.840Z,97089.97
2019-01-19T17:52:21.983Z,97096.37
2019-01-19T17:55:16.987Z,97090.00
2019-01-19T17:57:59.418Z,97105.83
2019-01-19T18:01:03.207Z,97098.47
2019-01-19T18:03:57.916Z,97102.67
2019-01-19T18:06:45.602Z,97104.43
2019-01-19T18:10:03.819Z,97108.68
2019-01-19T18:13:34.631Z,97109.14
2019-01-19T18:20:31.766Z,97109.81
2019-01-19T18:24:12.953Z,97107.38
2019-01-19T18:27:02.198Z,97112.63
2019-01-19T18:30:22.448Z,97112.50
2019-01-19T18:33:37.403Z,97113.64
2019-01-19T18:36:19.543Z,97109.05
2019-01-19T18:39:10.483Z,97101.52
2019-01-19T18:42:13.409Z,97112.19
2019-01-19T18:45:06.814Z,97116.98
2019-01-19T18:48:18.625Z,97116.39
2019-01-19T18:50:54.462Z,97125.22
2019-01-19T18:54:06.130Z,97119.73
2019-01-19T18:57:19.248Z,97124.78
2019-01-19T19:00:03.095Z,97128.28
2019-01-19T19:03:25.617Z,97131.08
2019-01-19T19:06:32.631Z,97131.73
2019-01-19T19:09:42.205Z,97126.20
2019-01-19T19:12:22.794Z,97123.81
2019-01-19T19:15:33.835Z,97127.36
2019-01-19T19:18:22.967Z,97122.20
2019-01-19T19:21:15.873Z,97122.96
2019-01-19T19:24:03.425Z,97121.67
2019-01-19T19:26:47.759Z,97119.99
2019-01-19T19:29:29.434Z,97123.12
2019-01-19T19:39:25.310Z,97125.75
2019-01-19T19:42:18.150Z,97136.48
2019-01-19T19:45:52.867Z,97130.09
2019-01-19T19:48:56.074Z,97129.43
2019-01-19T19:52:07.340Z,97129.24
2019-01-19T19:54:55.065Z,97128.89
2019-01-19T19:57:32.373Z,97129.64
2019-01-19T20:00:08.208Z,97131.45
2019-01-19T20:02:45.666Z,97132.01
2019-01-19T20:05:31.440Z,97137.34
2019-01-19T20:08:15.527Z,97134.87
2019-01-19T20:10:55.092Z,97131.09
2019-01-19T20:13:30.685Z,97134.13
2019-01-19T20:16:39.639Z,97131.05
2019-01-19T20:19:25.781Z,97126.69
2019-01-19T20:22:50.107Z,97127.34
2019-01-19T20:28:59.733Z,97133.92
2019-01-19T20:32:12.575Z,97125.20
2019-01-19T20:34:58.126Z,97125.03
2019-01-19T20:37:38.385Z,97127.27
2019-01-19T20:40:35.703Z,97128.01
2019-01-19T20:43:10.660Z,97128.28
2019-01-19T20:45:53.901Z,97132.74
2019-01-19T20:48:31.394Z,97135.66
2019-01-19T20:51:32.257Z,97139.30
2019-01-19T20:54:08.758Z,97144.76
2019-01-19T20:56:45.101Z,97148.46
2019-01-19T21:02:18.155Z,97153.14
2019-01-19T21:04:56.441Z,97148.54
2019-01-19T21:07:38.549Z,97157.46
2019-01-19T21:10:49.891Z,97158.05
2019-01-19T21:13:22.070Z,97160.38
2019-01-19T21:15:55.974Z,97165.67
2019-01-19T21:18:28.760Z,97163.81
2019-01-19T21:24:50.230Z,97166.25
2019-01-19T21:28:10.660Z,97169.09
2019-01-19T21:31:04.553Z,97164.16
2019-01-19T21:33:53.393Z,97164.09
2019-01-19T21:36:31.988Z,97165.35
2019-01-19T21:42:09.272Z,97161.24
2019-01-19T21:44:52.501Z,97161.32
2019-01-19T21:47:53.068Z,97163.20
2019-01-19T21:53:44.399Z,97168.44
2019-01-19T21:56:42.013Z,97168.96
2019-01-19T22:00:05.084Z,97167.44
2019-01-19T22:03:25.775Z,97170.41
2019-01-19T22:06:24.043Z,97175.11
2019-01-19T22:09:19.162Z,97170.62
2019-01-19T22:12:09.729Z,97164.79
2019-01-19T22:14:48.665Z,97162.63
2019-01-19T22:17:44.242Z,97165.17
2019-01-19T22:20:44.667Z,97163.02
2019-01-19T22:23:55.594Z,97162.52
2019-01-19T22:26:54.440Z,97173.94
2019-01-19T22:30:02.579Z,97172.89
2019-01-19T22:32:43.248Z,97173.11
2019-01-19T22:35:17.608Z,97175.55
2019-01-19T22:38:27.051Z,97173.30
2019-01-19T22:41:37.661Z,97167.86
2019-01-19T22:44:14.750Z,97167.78
2019-01-19T22:50:27.323Z,97171.33
2019-01-19T22:53:01.112Z,97173.60
2019-01-19T22:55:40.899Z,97168.33
2019-01-19T22:58:24.915Z,97168.19
2019-01-19T23:01:15.063Z,97164.49
2019-01-19T23:03:48.301Z,97165.19
2019-01-19T23:06:42.828Z,97163.44
2019-01-19T23:09:23.848Z,97159.38
2019-01-19T23:12:36.645Z,97157.72
2019-01-19T23:15:33.794Z,97161.98
2019-01-19T23:18:27.300Z,97156.84
2019-01-19T23:21:31.447Z,97155.39
2019-01-19T23:24:43.127Z,97152.73
2019-01-19T23:27:54.096Z,97146.09
2019-01-19T23:31:00.599Z,97150.95
2019-01-19T23:33:37.221Z,97152.80
2019-01-19T23:36:15.229Z,97146.23
2019-01-19T23:38:59.246Z,97148.43
2019-01-19T23:41:32.470Z,97145.76
2019-01-19T23:44:13.852Z,97139.90
2019-01-19T23:47:00.793Z,97144.29
2019-01-19T23:50:05.381Z,97139.59
2019-01-19T23:52:44.720Z,97134.27
2019-01-19T23:56:00.179Z,97129.13
2019-01-19T23:59:18.287Z,97131.70
